Time;durP1;ratioP1;P1;durP2;ratioP2;P2;SDS_P1;SDS_P2;PMS_P1;PMS_P2;Temp;Humidity;BMP_temperature;BMP_pressure;BME280_temperature;BME280_humidity;BME280_pressure;Samples;Min_cycle;Max_cycle;Signal;HPM_P1;HPM_P2
2023/10/16 00:00:40;;;;;;;1.85;0.40;;;7.50;99.90;;;;;;5063498;28;20548;-63
2023/10/16 00:03:07;;;;;;;;;;;7.60;99.90;;;;;;5048260;28;20040;-62
2023/10/16 00:05:45;;;;;;;1.25;0.20;;;7.60;99.90;;;;;;5047290;28;20290;-82
2023/10/16 00:08:16;;;;;;;0.43;0.30;;;7.50;99.90;;;;;;5048652;28;20387;-62
2023/10/16 00:10:43;;;;;;;1.35;0.40;;;7.60;99.90;;;;;;5042935;28;20055;-62
2023/10/16 00:13:12;;;;;;;3.38;0.35;;;7.40;99.90;;;;;;5046899;28;20056;-63
2023/10/16 00:15:49;;;;;;;0.90;0.22;;;7.50;99.90;;;;;;5048096;28;20679;-62
2023/10/16 00:18:18;;;;;;;1.75;0.43;;;7.50;99.90;;;;;;5018099;28;20041;-62
2023/10/16 00:20:47;;;;;;;3.03;0.13;;;7.40;99.90;;;;;;5039937;28;20099;-62
2023/10/16 00:23:13;;;;;;;1.00;0.20;;;7.40;99.90;;;;;;5047327;28;20064;-62
2023/10/16 00:25:40;;;;;;;0.30;0.10;;;7.30;99.90;;;;;;5047328;28;20045;-62
2023/10/16 00:28:09;;;;;;;3.97;0.43;;;7.20;99.90;;;;;;5044120;28;20377;-76
2023/10/16 00:30:35;;;;;;;0.30;0.30;;;7.30;99.90;;;;;;5047229;28;20056;-62
2023/10/16 00:33:01;;;;;;;1.65;0.20;;;7.30;99.90;;;;;;5029750;28;20049;-62
2023/10/16 00:35:27;;;;;;;2.13;0.30;;;7.20;99.90;;;;;;5046668;28;20560;-62
2023/10/16 00:37:55;;;;;;;1.50;0.20;;;7.20;99.90;;;;;;5045675;28;20132;-78
2023/10/16 00:40:33;;;;;;;1.35;0.20;;;7.30;99.90;;;;;;5009416;28;1121772;-62
2023/10/16 00:43:16;;;;;;;0.35;0.10;;;7.30;99.90;;;;;;5050252;28;20060;-66
2023/10/16 00:45:54;;;;;;;2.08;0.50;;;7.40;99.90;;;;;;5050735;28;20076;-62
2023/10/16 00:48:21;;;;;;;5.15;0.28;;;7.30;99.90;;;;;;5027637;28;20057;-62
2023/10/16 00:50:48;;;;;;;3.08;0.60;;;7.30;99.90;;;;;;5030543;28;20053;-62
2023/10/16 00:53:18;;;;;;;1.92;0.32;;;7.30;99.90;;;;;;5047696;28;20159;-62
2023/10/16 00:55:44;;;;;;;4.18;0.38;;;7.30;99.90;;;;;;5047993;28;20037;-62
2023/10/16 00:58:10;;;;;;;1.80;0.70;;;7.40;99.90;;;;;;5048232;28;20106;-63
2023/10/16 01:00:37;;;;;;;1.30;0.50;;;7.30;99.90;;;;;;5046780;28;20045;-62
2023/10/16 01:03:05;;;;;;;1.00;0.20;;;7.30;99.90;;;;;;5047976;28;20334;-69
2023/10/16 01:05:33;;;;;;;1.83;0.20;;;7.30;99.90;;;;;;5046617;28;20090;-62
2023/10/16 01:08:02;;;;;;;0.70;0.20;;;7.40;99.90;;;;;;5047121;28;20552;-62
2023/10/16 01:10:32;;;;;;;1.17;0.20;;;7.50;99.90;;;;;;5046289;28;20102;-62
2023/10/16 01:12:59;;;;;;;0.35;0.20;;;7.50;99.90;;;;;;5035157;28;20090;-63
2023/10/16 01:15:25;;;;;;;0.85;0.47;;;7.50;99.90;;;;;;5048105;28;20037;-62
2023/10/16 01:17:52;;;;;;;4.07;0.93;;;7.50;99.90;;;;;;5028727;28;20419;-62
2023/10/16 01:20:20;;;;;;;3.13;0.98;;;7.70;99.90;;;;;;5046011;28;20102;-62
2023/10/16 01:22:47;;;;;;;8.48;0.43;;;7.70;99.90;;;;;;5044841;28;20049;-63
2023/10/16 01:25:14;;;;;;;1.92;0.40;;;7.80;99.90;;;;;;5029550;28;20049;-62
2023/10/16 01:27:42;;;;;;;1.40;0.40;;;7.80;99.90;;;;;;5046501;28;20048;-62
2023/10/16 01:30:09;;;;;;;1.30;0.30;;;7.80;99.90;;;;;;5047874;28;20044;-62
2023/10/16 01:32:35;;;;;;;0.85;0.40;;;7.90;99.90;;;;;;5039715;28;20054;-83
2023/10/16 01:35:03;;;;;;;1.58;0.40;;;7.80;99.90;;;;;;5029412;28;20051;-62
2023/10/16 01:37:32;;;;;;;0.70;0.43;;;7.80;99.90;;;;;;5047610;28;20049;-61
2023/10/16 01:40:14;;;;;;;3.67;0.68;;;7.80;99.90;;;;;;5027976;28;20094;-62
2023/10/16 01:42:40;;;;;;;4.32;0.43;;;7.80;99.90;;;;;;5048242;28;20076;-62
2023/10/16 01:45:07;;;;;;;1.08;0.52;;;7.90;99.90;;;;;;5045768;28;20495;-87
2023/10/16 01:47:34;;;;;;;2.50;0.57;;;7.80;99.90;;;;;;5047379;28;20055;-62
2023/10/16 01:50:01;;;;;;;0.47;0.20;;;7.80;99.90;;;;;;5046596;28;20475;-62
2023/10/16 01:52:27;;;;;;;0.22;0.20;;;7.80;99.90;;;;;;5047156;28;20097;-83
2023/10/16 01:54:53;;;;;;;1.75;0.32;;;7.80;99.90;;;;;;5047339;28;20080;-62
2023/10/16 01:57:21;;;;;;;2.10;0.40;;;7.80;99.90;;;;;;5024407;28;20050;-61
2023/10/16 01:59:51;;;;;;;1.85;0.65;;;7.90;99.90;;;;;;5040639;28;20072;-62
2023/10/16 02:02:17;;;;;;;2.75;0.45;;;7.80;99.90;;;;;;5042712;28;20151;-64
2023/10/16 02:04:43;;;;;;;3.25;0.40;;;7.80;99.90;;;;;;5041350;28;20112;-62
2023/10/16 02:07:11;;;;;;;1.80;0.30;;;7.70;99.90;;;;;;5027517;28;20614;-62
2023/10/16 02:09:38;;;;;;;5.18;0.55;;;7.70;99.90;;;;;;5047172;28;20033;-62
2023/10/16 02:12:14;;;;;;;2.10;0.20;;;7.70;99.90;;;;;;5029772;28;20045;-84
2023/10/16 02:14:40;;;;;;;1.38;0.40;;;7.60;99.90;;;;;;5046370;28;20045;-65
2023/10/16 02:17:14;;;;;;;7.05;0.43;;;7.60;99.90;;;;;;5045965;28;20056;-62
2023/10/16 02:19:43;;;;;;;6.63;0.20;;;7.60;99.90;;;;;;5031518;28;20068;-76
2023/10/16 02:22:14;;;;;;;4.63;0.17;;;7.50;99.90;;;;;;5051154;28;20056;-63
2023/10/16 02:24:40;;;;;;;0.50;0.30;;;7.50;99.90;;;;;;5051190;28;20279;-62
2023/10/16 02:27:12;;;;;;;0.57;0.30;;;7.60;99.90;;;;;;5050588;28;20053;-75
2023/10/16 02:29:49;;;;;;;1.33;0.10;;;7.50;99.90;;;;;;5050209;28;20123;-64
2023/10/16 02:32:15;;;;;;;4.93;0.57;;;7.50;99.90;;;;;;5031629;28;20115;-62
2023/10/16 02:34:41;;;;;;;4.55;0.50;;;7.40;99.90;;;;;;5051328;28;20532;-62
2023/10/16 02:37:09;;;;;;;1.38;0.38;;;7.40;99.90;;;;;;5049681;28;20178;-80
2023/10/16 02:39:35;;;;;;;0.85;0.25;;;7.40;99.90;;;;;;5031503;28;20056;-84
2023/10/16 02:42:06;;;;;;;3.25;0.20;;;7.40;99.90;;;;;;5031569;28;20056;-62
2023/10/16 02:44:33;;;;;;;;;;;7.40;99.90;;;;;;5050693;28;20119;-61
2023/10/16 02:46:58;;;;;;;0.85;0.30;;;7.30;99.90;;;;;;5050854;28;19921;-62
2023/10/16 02:49:24;;;;;;;4.70;0.38;;;7.30;99.90;;;;;;5041562;28;20053;-62
2023/10/16 02:51:52;;;;;;;0.57;0.22;;;7.40;99.90;;;;;;5032313;28;20126;-62
2023/10/16 02:54:18;;;;;;;1.25;0.20;;;7.30;99.90;;;;;;5031528;28;20045;-62
2023/10/16 02:56:44;;;;;;;0.20;0.10;;;7.40;99.90;;;;;;5051138;28;20056;-61
2023/10/16 02:59:11;;;;;;;0.75;0.35;;;7.30;99.90;;;;;;5047217;28;20067;-61
2023/10/16 03:01:38;;;;;;;1.58;0.38;;;7.40;99.90;;;;;;5045327;28;20049;-84
2023/10/16 03:04:05;;;;;;;3.30;0.40;;;7.40;99.90;;;;;;5050776;28;20045;-61
2023/10/16 03:06:31;;;;;;;0.00;0.00;;;7.40;99.90;;;;;;5031324;28;20103;-62
2023/10/16 03:09:18;;;;;;;2.53;0.30;;;7.30;99.90;;;;;;5050855;28;20037;-65
2023/10/16 03:11:42;;;;;;;0.90;0.10;;;7.30;99.90;;;;;;5040769;28;20052;-62
2023/10/16 03:14:12;;;;;;;1.73;0.17;;;7.30;99.90;;;;;;5032296;28;20061;-86
2023/10/16 03:16:37;;;;;;;1.73;0.30;;;7.30;99.90;;;;;;5050004;28;20556;-65
2023/10/16 03:19:09;;;;;;;1.00;0.17;;;7.30;99.90;;;;;;5047859;28;20045;-62
2023/10/16 03:21:35;;;;;;;3.35;0.40;;;7.30;99.90;;;;;;5048999;28;20110;-63
2023/10/16 03:24:01;;;;;;;1.92;0.38;;;7.30;99.90;;;;;;5049475;28;20116;-65
2023/10/16 03:26:30;;;;;;;0.80;0.20;;;7.30;99.90;;;;;;5050259;28;20144;-62
2023/10/16 03:28:57;;;;;;;1.63;0.50;;;7.40;99.90;;;;;;5048563;28;20048;-63
2023/10/16 03:31:24;;;;;;;1.55;0.43;;;7.20;99.90;;;;;;5048434;28;20043;-63
2023/10/16 03:33:50;;;;;;;2.03;0.20;;;7.30;99.90;;;;;;5049826;28;20044;-62
2023/10/16 03:36:17;;;;;;;2.75;0.40;;;7.30;99.90;;;;;;5049128;28;20494;-62
2023/10/16 03:38:43;;;;;;;2.55;0.50;;;7.40;99.90;;;;;;5050176;28;20053;-88
2023/10/16 03:41:19;;;;;;;3.60;0.28;;;7.40;99.90;;;;;;5047425;28;20133;-76
2023/10/16 03:43:46;;;;;;;3.50;0.30;;;7.40;99.90;;;;;;5038005;28;20124;-62
2023/10/16 03:46:15;;;;;;;2.40;0.30;;;7.40;99.90;;;;;;5047853;28;20033;-62
2023/10/16 03:48:41;;;;;;;3.25;0.30;;;7.30;99.90;;;;;;5036681;28;20049;-62
2023/10/16 03:51:07;;;;;;;0.22;0.22;;;7.30;99.90;;;;;;5030761;28;20145;-62
2023/10/16 03:53:37;;;;;;;2.67;0.43;;;7.30;99.90;;;;;;5042780;28;20105;-62
2023/10/16 03:56:05;;;;;;;4.47;0.20;;;7.30;99.90;;;;;;5049431;28;20131;-62
2023/10/16 03:58:34;;;;;;;5.70;0.32;;;7.20;99.90;;;;;;5048020;28;20049;-62
2023/10/16 04:01:07;;;;;;;1.52;0.35;;;7.20;99.90;;;;;;5046701;28;20045;-62
2023/10/16 04:03:46;;;;;;;1.15;0.30;;;7.20;99.90;;;;;;5048088;28;20495;-62
2023/10/16 04:06:12;;;;;;;2.65;0.35;;;7.10;99.90;;;;;;5043151;28;20395;-63
2023/10/16 04:08:37;;;;;;;2.17;0.50;;;7.10;99.90;;;;;;5047673;28;20048;-61
2023/10/16 04:11:03;;;;;;;5.55;0.55;;;7.10;99.90;;;;;;5030914;28;20068;-62
2023/10/16 04:13:32;;;;;;;2.22;0.30;;;7.00;99.90;;;;;;5048404;28;20052;-62
2023/10/16 04:18:30;;;;;;;2.58;0.30;;;7.10;99.90;;;;;;5042143;28;20622;-76
2023/10/16 04:31:45;;;;;;;0.93;0.40;;;7.10;99.90;;;;;;5048916;28;20151;-62
2023/10/16 04:34:24;;;;;;;0.25;0.20;;;7.20;99.90;;;;;;5047717;28;20037;-62
2023/10/16 04:47:42;;;;;;;0.52;0.22;;;7.20;99.90;;;;;;5048715;28;20140;-63
2023/10/16 04:50:11;;;;;;;1.38;0.35;;;7.30;99.90;;;;;;5047891;28;20127;-63
2023/10/16 05:00:56;;;;;;;4.78;0.47;;;7.20;99.90;;;;;;5030399;28;20122;-62
2023/10/16 05:03:23;;;;;;;2.20;0.20;;;7.20;99.90;;;;;;5042666;28;20040;-79
2023/10/16 05:06:02;;;;;;;8.48;0.55;;;7.20;99.90;;;;;;5048856;28;20041;-62
2023/10/16 05:08:38;;;;;;;6.63;0.47;;;7.20;99.90;;;;;;5028751;28;20048;-62
2023/10/16 05:16:38;;;;;;;1.35;0.40;;;7.30;99.90;;;;;;5029875;28;20581;-62
2023/10/16 05:19:17;;;;;;;6.25;0.50;;;7.40;99.90;;;;;;5032967;28;20049;-62
2023/10/16 06:16:28;;;;;;;1.35;0.45;;;8.20;99.90;;;;;;5047681;28;20388;-64
2023/10/16 06:18:54;;;;;;;8.93;1.85;;;8.20;99.90;;;;;;5054220;28;20553;-62
2023/10/16 06:21:19;;;;;;;17.65;4.07;;;8.30;99.90;;;;;;5055782;28;20045;-62
2023/10/16 06:23:48;;;;;;;14.43;5.15;;;8.20;99.90;;;;;;5046964;28;20467;-71
2023/10/16 06:26:21;;;;;;;13.35;3.00;;;8.30;99.90;;;;;;5025084;28;20056;-61
2023/10/16 06:28:49;;;;;;;11.52;3.75;;;8.40;99.90;;;;;;5046934;28;20395;-62
2023/10/16 06:31:22;;;;;;;9.40;1.58;;;8.40;99.90;;;;;;5011338;28;20093;-62
2023/10/16 06:33:58;;;;;;;8.07;1.05;;;8.40;99.90;;;;;;5046437;28;20106;-86
2023/10/16 06:36:25;;;;;;;6.53;1.48;;;8.50;99.90;;;;;;5046594;28;20057;-86
2023/10/16 06:38:51;;;;;;;6.05;1.02;;;8.60;99.90;;;;;;4996533;28;20046;-79
2023/10/16 06:41:18;;;;;;;9.73;0.77;;;8.50;99.90;;;;;;5024714;28;20068;-62
2023/10/16 06:43:47;;;;;;;2.35;0.70;;;8.60;99.90;;;;;;5045541;28;20052;-62
2023/10/16 06:46:21;;;;;;;4.13;0.45;;;8.50;99.90;;;;;;5012392;28;20449;-62
2023/10/16 06:48:48;;;;;;;11.05;1.25;;;8.50;99.90;;;;;;5039570;28;20045;-68
2023/10/16 06:51:15;;;;;;;4.70;0.57;;;8.60;99.90;;;;;;5041231;28;20068;-62
2023/10/16 06:53:43;;;;;;;0.52;0.30;;;8.50;99.90;;;;;;5046589;28;20095;-76
2023/10/16 06:56:09;;;;;;;2.67;0.55;;;8.50;99.90;;;;;;5045604;28;20483;-62
2023/10/16 06:58:34;;;;;;;0.90;0.30;;;8.50;99.90;;;;;;5024303;28;20033;-62
2023/10/16 07:01:01;;;;;;;4.97;0.82;;;8.50;99.90;;;;;;5045124;28;20132;-62
2023/10/16 07:03:28;;;;;;;3.88;0.95;;;8.50;99.90;;;;;;5046533;28;20439;-86
2023/10/16 07:05:54;;;;;;;4.65;0.80;;;8.50;99.90;;;;;;5027249;28;20045;-62
2023/10/16 07:08:22;;;;;;;6.18;1.02;;;8.50;99.90;;;;;;5047432;28;20052;-63
2023/10/16 07:10:49;;;;;;;5.53;0.90;;;8.60;99.90;;;;;;5031523;28;20041;-61
2023/10/16 07:13:28;;;;;;;2.45;0.47;;;8.50;99.90;;;;;;5049040;28;20511;-62
2023/10/16 07:16:00;;;;;;;7.13;0.75;;;8.50;99.90;;;;;;5050352;28;20300;-62
2023/10/16 07:18:27;;;;;;;3.53;0.77;;;8.60;99.90;;;;;;5049297;28;20064;-62
2023/10/16 07:21:06;;;;;;;3.30;0.55;;;8.60;99.90;;;;;;5037249;28;20114;-61
2023/10/16 07:23:37;;;;;;;8.63;0.68;;;8.70;99.90;;;;;;5034288;28;20048;-61
2023/10/16 07:26:09;;;;;;;;;;;8.60;99.90;;;;;;5063992;28;20036;-74
2023/10/16 07:28:35;;;;;;;1.58;0.45;;;8.80;99.90;;;;;;5050275;28;19947;-62
2023/10/16 07:31:05;;;;;;;4.00;1.80;;;8.70;99.90;;;;;;5043782;28;20116;-87
2023/10/16 07:33:32;;;;;;;1.55;0.50;;;8.80;99.90;;;;;;5037452;28;20045;-62
2023/10/16 07:36:10;;;;;;;2.72;0.80;;;8.90;99.90;;;;;;5030817;28;20043;-61
2023/10/16 07:38:40;;;;;;;5.15;0.75;;;8.90;99.90;;;;;;5049992;28;20045;-62
2023/10/16 07:41:09;;;;;;;2.88;0.77;;;8.90;99.90;;;;;;5025274;28;20089;-62
2023/10/16 07:43:36;;;;;;;2.40;1.30;;;8.90;99.90;;;;;;5043118;28;20135;-62
2023/10/16 07:49:01;;;;;;;5.85;1.00;;;9.00;99.90;;;;;;5048320;28;20505;-87
2023/10/16 07:51:27;;;;;;;5.25;0.93;;;9.20;99.90;;;;;;5030594;28;20037;-62
2023/10/16 07:53:56;;;;;;;5.78;0.73;;;9.40;99.90;;;;;;5029580;28;20526;-62
2023/10/16 07:56:25;;;;;;;1.95;0.80;;;9.60;99.90;;;;;;5048925;28;20102;-62
2023/10/16 07:59:18;;;;;;;3.17;0.95;;;9.90;99.90;;;;;;5058864;28;20037;-62
2023/10/16 08:04:19;;;;;;;8.93;0.85;;;10.20;99.90;;;;;;5041176;28;20063;-62
2023/10/16 08:06:53;;;;;;;4.95;0.77;;;10.20;99.90;;;;;;5030500;28;20041;-75
2023/10/16 08:11:58;;;;;;;12.43;1.73;;;10.10;99.90;;;;;;5049585;28;20049;-62
2023/10/16 08:14:25;;;;;;;6.90;2.20;;;10.10;99.90;;;;;;5037576;28;20539;-62
2023/10/16 08:16:58;;;;;;;10.65;1.88;;;9.90;99.90;;;;;;5011960;28;20102;-62
2023/10/16 08:19:31;;;;;;;14.45;1.35;;;9.90;99.90;;;;;;5030081;28;20041;-88
2023/10/16 08:21:58;;;;;;;6.68;0.73;;;9.90;99.90;;;;;;5048770;28;20056;-87
2023/10/16 08:24:24;;;;;;;8.23;1.27;;;9.90;99.90;;;;;;5040667;28;20088;-84
2023/10/16 08:26:52;;;;;;;3.97;0.77;;;9.90;99.90;;;;;;5047831;28;20591;-62
2023/10/16 08:29:20;;;;;;;9.40;1.20;;;9.90;99.90;;;;;;5049451;28;20115;-62
2023/10/16 08:32:43;;;;;;;3.83;0.77;;;9.90;99.90;;;;;;5047613;28;20553;-62
2023/10/16 08:34:40;;;;;;;4.72;0.82;;;10.10;99.90;;;;;;5047411;28;20071;-62
2023/10/16 08:37:09;;;;;;;3.97;0.80;;;10.10;99.90;;;;;;5030228;28;20053;-62
2023/10/16 08:39:44;;;;;;;5.40;1.10;;;10.20;99.90;;;;;;5048063;28;20096;-62
2023/10/16 08:42:19;;;;;;;10.48;1.02;;;10.30;99.90;;;;;;5048949;28;20514;-62
2023/10/16 08:44:51;;;;;;;3.53;0.60;;;10.30;99.90;;;;;;5046895;28;20445;-61
2023/10/16 08:47:24;;;;;;;3.60;0.82;;;10.30;99.90;;;;;;5069177;28;20083;-60
2023/10/16 08:49:54;;;;;;;3.63;0.75;;;10.40;99.90;;;;;;5049329;28;20052;-61
2023/10/16 08:52:22;;;;;;;4.90;0.90;;;10.40;99.90;;;;;;5068540;28;20056;-61
2023/10/16 08:57:18;;;;;;;6.15;1.15;;;10.60;99.90;;;;;;5033510;28;20080;-61
2023/10/16 08:59:47;;;;;;;2.60;0.43;;;10.60;99.90;;;;;;5062445;28;20502;-61
2023/10/16 09:02:17;;;;;;;6.97;1.00;;;10.70;99.90;;;;;;5061072;28;20071;-61
2023/10/16 09:04:44;;;;;;;;;;;10.70;99.90;;;;;;5068993;28;20490;-61
2023/10/16 09:07:16;;;;;;;6.57;0.90;;;10.80;99.90;;;;;;5052661;28;19974;-61
2023/10/16 09:09:48;;;;;;;3.85;0.63;;;10.90;99.90;;;;;;5060642;28;20554;-61
2023/10/16 09:12:26;;;;;;;4.55;0.90;;;11.10;99.90;;;;;;5031338;28;20041;-61
2023/10/16 09:14:53;;;;;;;5.43;1.13;;;11.10;99.90;;;;;;5046917;28;20045;-61
2023/10/16 09:17:25;;;;;;;4.57;0.90;;;11.10;99.90;;;;;;5047121;28;20059;-61
2023/10/16 09:19:53;;;;;;;3.50;1.08;;;11.00;99.90;;;;;;5046573;28;20053;-61
2023/10/16 09:22:26;;;;;;;4.78;0.82;;;11.00;99.90;;;;;;5048550;28;20343;-81
2023/10/16 09:24:52;;;;;;;2.00;0.60;;;10.90;99.90;;;;;;5029192;28;20049;-61
2023/10/16 09:27:30;;;;;;;8.30;0.73;;;10.90;99.90;;;;;;5045649;28;20049;-66
2023/10/16 09:29:58;;;;;;;4.50;0.80;;;10.80;99.90;;;;;;5029972;28;20053;-61
2023/10/16 09:32:39;;;;;;;7.38;0.73;;;10.80;99.90;;;;;;5046107;28;20048;-61
2023/10/16 09:35:11;;;;;;;6.72;0.60;;;10.70;99.90;;;;;;5048023;28;20118;-61
2023/10/16 09:37:37;;;;;;;5.28;0.98;;;10.70;99.90;;;;;;5045378;28;20051;-70
2023/10/16 09:40:19;;;;;;;2.17;0.30;;;10.70;99.90;;;;;;5046672;28;20885;-61
2023/10/16 09:43:05;;;;;;;2.63;0.43;;;10.70;99.90;;;;;;5048306;28;20049;-82
2023/10/16 09:45:35;;;;;;;4.78;0.98;;;10.80;99.90;;;;;;5046861;28;20400;-62
2023/10/16 09:48:08;;;;;;;;;;;10.90;99.90;;;;;;5046492;28;20463;-61
2023/10/16 09:50:38;;;;;;;4.97;0.70;;;11.00;99.90;;;;;;5025505;28;19921;-61
2023/10/16 09:53:07;;;;;;;2.97;0.55;;;11.10;99.90;;;;;;5009569;28;20033;-62
2023/10/16 09:55:44;;;;;;;6.80;1.00;;;11.10;99.90;;;;;;5031765;28;20045;-61
2023/10/16 09:58:11;;;;;;;1.92;0.77;;;11.30;99.90;;;;;;5046585;28;20052;-62
2023/10/16 10:00:46;;;;;;;5.30;0.90;;;11.40;99.90;;;;;;5032379;28;20037;-61
2023/10/16 10:03:14;;;;;;;5.68;1.67;;;11.50;99.90;;;;;;5036431;28;20049;-61
2023/10/16 10:05:55;;;;;;;11.50;0.95;;;11.70;99.90;;;;;;5055432;28;20048;-61
2023/10/16 10:09:22;;;;;;;5.10;0.85;;;11.80;99.90;;;;;;5046119;28;20044;-62
2023/10/16 10:11:57;;;;;;;3.70;0.77;;;11.90;99.90;;;;;;5033010;28;20060;-72
2023/10/16 10:14:39;;;;;;;4.88;1.17;;;11.90;99.90;;;;;;5047676;28;20029;-62
2023/10/16 10:17:09;;;;;;;3.22;0.80;;;12.00;99.90;;;;;;5028927;28;20083;-61
2023/10/16 10:19:40;;;;;;;2.13;0.60;;;11.90;99.90;;;;;;5024975;28;20084;-79
2023/10/16 10:22:17;;;;;;;2.17;0.50;;;11.70;99.90;;;;;;5047342;28;20056;-88
2023/10/16 10:25:08;;;;;;;5.55;0.50;;;11.50;99.90;;;;;;5045575;28;20514;-62
2023/10/16 10:27:44;;;;;;;8.45;1.00;;;11.40;99.90;;;;;;5047298;28;20565;-61
2023/10/16 10:30:17;;;;;;;6.43;1.73;;;11.30;99.90;;;;;;5027747;28;20044;-61
2023/10/16 10:32:44;;;;;;;8.13;0.70;;;11.10;99.90;;;;;;5027190;28;20041;-62
2023/10/16 10:35:30;;;;;;;2.22;0.55;;;11.00;99.90;;;;;;5046953;28;20049;-61
2023/10/16 10:38:17;;;;;;;4.00;0.90;;;10.90;99.90;;;;;;5027818;28;20052;-62
2023/10/16 10:41:09;;;;;;;4.32;0.70;;;10.80;99.90;;;;;;5047938;28;20507;-62
2023/10/16 10:43:46;;;;;;;1.77;0.50;;;10.70;99.90;;;;;;5016307;28;20056;-62
2023/10/16 10:46:21;;;;;;;1.20;0.50;;;10.70;99.90;;;;;;5049626;28;20045;-61
2023/10/16 10:48:46;;;;;;;3.80;0.93;;;10.70;99.90;;;;;;5051398;28;20041;-73
2023/10/16 10:51:15;;;;;;;3.13;0.47;;;10.70;99.90;;;;;;5024827;28;20134;-76
2023/10/16 10:53:57;;;;;;;1.98;0.60;;;10.80;99.90;;;;;;5050019;28;20088;-62
2023/10/16 10:56:48;;;;;;;1.08;0.30;;;11.00;99.90;;;;;;5050622;28;20220;-61
2023/10/16 10:59:39;;;;;;;1.90;0.40;;;11.20;99.90;;;;;;5038375;28;20486;-61
2023/10/16 11:02:20;;;;;;;3.72;0.38;;;11.30;99.90;;;;;;5049639;28;20036;-61
2023/10/16 11:04:53;;;;;;;4.55;0.47;;;11.50;99.90;;;;;;5032948;28;20432;-61
2023/10/16 11:07:29;;;;;;;5.00;0.57;;;11.60;99.90;;;;;;5049090;28;20475;-61
2023/10/16 11:09:57;;;;;;;2.92;0.60;;;11.70;99.90;;;;;;5032867;28;20040;-61
2023/10/16 11:12:26;;;;;;;1.35;0.40;;;11.80;99.90;;;;;;5033327;28;20049;-62
2023/10/16 11:14:54;;;;;;;1.00;0.60;;;11.80;98.70;;;;;;5013032;28;20107;-61
2023/10/16 11:17:33;;;;;;;2.90;0.55;;;11.80;94.20;;;;;;5043188;28;20056;-76
2023/10/16 11:20:11;;;;;;;3.38;0.70;;;11.80;96.70;;;;;;5037571;28;20437;-62
2023/10/16 11:22:43;;;;;;;3.72;0.50;;;11.90;99.90;;;;;;5044228;28;20123;-76
2023/10/16 11:25:13;;;;;;;4.45;0.60;;;11.90;98.60;;;;;;5036317;28;20433;-61
2023/10/16 11:27:42;;;;;;;2.65;0.50;;;12.00;97.30;;;;;;5049264;28;20083;-61
2023/10/16 11:30:14;;;;;;;1.80;0.47;;;12.10;99.90;;;;;;5025272;28;20089;-70
2023/10/16 11:32:45;;;;;;;4.40;0.77;;;12.30;91.90;;;;;;5024520;28;20060;-62
2023/10/16 11:35:15;;;;;;;2.47;0.70;;;12.40;92.50;;;;;;5036681;28;20045;-62
2023/10/16 11:37:52;;;;;;;3.40;0.63;;;12.60;96.80;;;;;;5028745;28;20056;-62
2023/10/16 11:40:18;;;;;;;4.90;0.63;;;12.90;94.90;;;;;;5036947;28;20450;-61
2023/10/16 11:42:48;;;;;;;7.28;0.82;;;13.00;89.20;;;;;;5036027;28;20488;-62
2023/10/16 11:45:20;;;;;;;0.30;0.30;;;13.10;96.90;;;;;;5031793;28;20052;-62
2023/10/16 11:50:40;;;;;;;2.70;0.68;;;13.00;94.80;;;;;;5047617;28;20037;-62
2023/10/16 11:53:07;;;;;;;5.47;0.73;;;12.90;95.50;;;;;;5030796;28;20049;-61
2023/10/16 11:55:36;;;;;;;5.18;0.95;;;12.80;97.30;;;;;;5039679;28;20048;-62
2023/10/16 11:58:06;;;;;;;3.67;0.60;;;12.70;92.60;;;;;;5029499;28;20067;-61
2023/10/16 12:00:35;;;;;;;8.65;0.60;;;12.70;94.00;;;;;;5031009;28;20124;-62
2023/10/16 12:03:07;;;;;;;2.42;0.70;;;12.60;86.90;;;;;;5048464;28;20589;-62
2023/10/16 12:05:34;;;;;;;2.55;0.30;;;12.50;84.50;;;;;;5057781;28;20037;-62
2023/10/16 12:08:02;;;;;;;1.90;0.60;;;12.40;83.80;;;;;;5029324;28;20041;-62
2023/10/16 12:10:31;;;;;;;1.55;0.43;;;12.30;78.80;;;;;;5048009;28;20049;-61
2023/10/16 12:12:59;;;;;;;2.30;0.52;;;12.30;76.60;;;;;;5047963;28;20178;-62
2023/10/16 12:15:25;;;;;;;1.95;0.35;;;12.40;84.00;;;;;;5037333;28;20045;-62
2023/10/16 12:17:53;;;;;;;7.82;0.63;;;12.30;81.50;;;;;;5047027;28;20360;-61
2023/10/16 12:20:21;;;;;;;3.60;0.55;;;12.30;63.10;;;;;;5048026;28;20096;-62
2023/10/16 12:22:49;;;;;;;1.88;0.57;;;12.20;58.10;;;;;;5049270;28;20053;-62
2023/10/16 12:25:15;;;;;;;3.40;0.50;;;12.10;76.00;;;;;;5044708;28;20521;-62
2023/10/16 12:27:41;;;;;;;3.67;0.63;;;12.10;74.80;;;;;;5048937;28;20037;-62
2023/10/16 12:30:13;;;;;;;1.23;0.30;;;12.10;75.20;;;;;;5046316;28;20503;-62
2023/10/16 12:32:38;;;;;;;2.92;0.63;;;12.10;80.90;;;;;;5027552;28;20045;-62
2023/10/16 12:35:08;;;;;;;3.70;0.60;;;12.20;68.90;;;;;;5047930;28;20052;-62
2023/10/16 12:37:34;;;;;;;0.93;0.40;;;12.20;86.80;;;;;;5029886;28;20671;-62
2023/10/16 12:40:24;;;;;;;3.88;0.45;;;12.30;80.00;;;;;;5048815;28;20048;-85
2023/10/16 12:42:46;;;;;;;3.53;0.50;;;12.40;86.60;;;;;;5045648;28;20049;-61
2023/10/16 12:45:11;;;;;;;5.35;0.88;;;12.40;86.50;;;;;;5027871;28;20037;-74
2023/10/16 12:47:37;;;;;;;1.92;0.77;;;12.40;84.30;;;;;;5013643;28;20060;-62
2023/10/16 12:50:05;;;;;;;1.63;0.47;;;12.50;84.50;;;;;;5047968;28;20051;-62
2023/10/16 12:52:31;;;;;;;0.50;0.40;;;12.50;64.90;;;;;;5047533;28;20388;-62
2023/10/16 12:55:00;;;;;;;2.88;0.50;;;12.50;67.40;;;;;;5047879;28;20522;-62
2023/10/16 12:57:27;;;;;;;1.60;0.40;;;12.50;73.60;;;;;;5046110;28;20053;-62
2023/10/16 12:59:56;;;;;;;1.67;0.50;;;12.50;68.90;;;;;;5046695;28;20532;-62
2023/10/16 13:02:25;;;;;;;2.80;0.57;;;12.50;63.80;;;;;;5044143;28;20041;-62
2023/10/16 13:04:52;;;;;;;1.70;0.40;;;12.50;67.60;;;;;;5020598;28;20049;-62
2023/10/16 13:07:20;;;;;;;4.72;0.45;;;12.50;66.50;;;;;;5032682;28;20128;-61
2023/10/16 13:09:47;;;;;;;4.45;0.65;;;12.40;55.60;;;;;;5047159;28;20130;-62
2023/10/16 13:12:13;;;;;;;5.68;0.52;;;12.40;65.40;;;;;;5047757;28;20048;-62
2023/10/16 13:14:40;;;;;;;3.05;0.50;;;12.50;70.10;;;;;;5047747;28;20102;-61
2023/10/16 13:17:09;;;;;;;2.42;0.68;;;12.40;54.40;;;;;;5046686;28;20522;-61
2023/10/16 13:19:35;;;;;;;5.38;0.75;;;12.40;53.40;;;;;;5028319;28;20100;-62
2023/10/16 13:22:10;;;;;;;1.17;0.22;;;12.40;42.50;;;;;;5046241;28;20053;-62
2023/10/16 13:24:37;;;;;;;2.47;0.55;;;12.40;53.10;;;;;;5047502;28;20052;-62
2023/10/16 13:27:04;;;;;;;3.35;0.68;;;12.30;56.20;;;;;;5028865;28;20040;-62
2023/10/16 13:29:31;;;;;;;1.38;0.73;;;12.30;54.10;;;;;;5020058;28;20037;-62
2023/10/16 13:32:00;;;;;;;1.00;0.40;;;12.30;42.20;;;;;;5047574;28;20037;-61
2023/10/16 13:34:26;;;;;;;8.52;1.02;;;12.30;48.50;;;;;;5039532;28;20040;-62
2023/10/16 13:37:01;;;;;;;2.85;0.55;;;12.30;57.60;;;;;;5029378;28;20493;-62
2023/10/16 13:39:31;;;;;;;5.60;0.70;;;12.30;62.70;;;;;;5044982;28;20548;-61
2023/10/16 13:41:58;;;;;;;1.75;0.55;;;12.30;61.60;;;;;;5029561;28;20063;-61
2023/10/16 13:44:25;;;;;;;4.97;0.80;;;12.30;54.90;;;;;;5039526;28;20045;-61
2023/10/16 13:46:52;;;;;;;3.60;0.40;;;12.30;73.10;;;;;;5047206;28;20123;-62
2023/10/16 13:49:18;;;;;;;5.57;0.50;;;12.30;73.70;;;;;;5047331;28;20132;-62
2023/10/16 13:51:45;;;;;;;2.17;0.60;;;12.20;60.10;;;;;;5044335;28;20048;-62
2023/10/16 13:54:12;;;;;;;6.00;0.63;;;12.20;59.60;;;;;;5021924;28;20049;-62
2023/10/16 13:56:41;;;;;;;2.30;0.68;;;12.20;62.00;;;;;;5046453;28;20052;-61
2023/10/16 13:59:08;;;;;;;2.50;0.50;;;12.20;61.40;;;;;;5047845;28;20044;-62
2023/10/16 14:01:39;;;;;;;4.40;0.52;;;12.10;43.00;;;;;;5044618;28;20037;-62
2023/10/16 14:04:11;;;;;;;2.67;0.65;;;12.10;41.10;;;;;;5014814;28;20037;-62
2023/10/16 14:06:40;;;;;;;2.05;0.57;;;12.10;52.80;;;;;;5041473;28;20056;-61
2023/10/16 14:09:11;;;;;;;1.92;0.77;;;12.10;57.60;;;;;;5037459;28;20078;-62
2023/10/16 14:11:47;;;;;;;5.38;0.73;;;12.10;57.30;;;;;;5028213;28;20128;-62
2023/10/16 14:14:20;;;;;;;2.15;0.70;;;12.00;54.50;;;;;;5029949;28;20048;-62
2023/10/16 14:16:51;;;;;;;2.88;0.80;;;12.10;66.00;;;;;;5051170;28;20053;-62
2023/10/16 14:19:22;;;;;;;5.47;0.88;;;12.10;76.00;;;;;;5033632;28;20079;-62
2023/10/16 14:21:54;;;;;;;4.07;0.40;;;12.10;73.70;;;;;;5048620;28;20045;-61
2023/10/16 14:24:25;;;;;;;4.28;0.70;;;12.00;73.90;;;;;;5051005;28;20403;-62
2023/10/16 14:26:56;;;;;;;3.42;0.88;;;12.00;74.80;;;;;;5061005;28;20037;-61
2023/10/16 14:29:25;;;;;;;1.60;0.40;;;12.00;78.60;;;;;;5065992;28;20061;-62
2023/10/16 14:31:55;;;;;;;7.13;0.80;;;12.10;77.90;;;;;;5048735;28;20041;-62
2023/10/16 14:34:22;;;;;;;2.88;0.73;;;12.00;78.20;;;;;;5050446;28;20443;-61
2023/10/16 14:36:51;;;;;;;5.88;0.77;;;12.00;80.70;;;;;;5050729;28;20388;-78
2023/10/16 14:39:18;;;;;;;1.65;0.45;;;12.00;82.90;;;;;;5049460;28;20039;-62
2023/10/16 14:41:44;;;;;;;8.45;1.25;;;12.00;83.60;;;;;;5041787;28;20518;-62
2023/10/16 14:44:11;;;;;;;8.23;0.88;;;11.90;77.60;;;;;;5047749;28;20053;-62
2023/10/16 14:46:38;;;;;;;2.25;0.60;;;12.00;82.20;;;;;;5050848;28;20040;-62
2023/10/16 14:49:11;;;;;;;18.55;1.50;;;11.90;84.30;;;;;;5045533;28;20102;-62
2023/10/16 14:51:38;;;;;;;2.88;0.50;;;12.00;87.90;;;;;;5052788;28;20475;-61
2023/10/16 14:54:08;;;;;;;8.50;0.68;;;11.90;79.20;;;;;;5045753;28;20093;-62